sensor_id;sensor_type;location;lat;lon;timestamp;P1;durP1;ratioP1;P2;durP2;ratioP2
38717;SDS011;24468;52.128;9.278;2023-11-21T00:00:04;19.20;;;9.77;;
38717;SDS011;24468;52.128;9.278;2023-11-21T00:02:35;10.18;;;7.35;;
38717;SDS011;24468;52.128;9.278;2023-11-21T00:05:03;15.15;;;7.75;;
38717;SDS011;24468;52.128;9.278;2023-11-21T00:07:29;11.00;;;7.90;;
38717;SDS011;24468;52.128;9.278;2023-11-21T00:09:55;13.43;;;8.57;;
38717;SDS011;24468;52.128;9.278;2023-11-21T00:12:21;16.58;;;9.20;;
38717;SDS011;24468;52.128;9.278;2023-11-21T00:14:46;19.35;;;9.38;;
38717;SDS011;24468;52.128;9.278;2023-11-21T00:17:12;14.32;;;9.32;;
38717;SDS011;24468;52.128;9.278;2023-11-21T00:19:37;13.50;;;9.90;;
38717;SDS011;24468;52.128;9.278;2023-11-21T00:22:03;16.33;;;9.60;;
38717;SDS011;24468;52.128;9.278;2023-11-21T00:24:28;13.65;;;9.45;;
38717;SDS011;24468;52.128;9.278;2023-11-21T00:26:54;15.27;;;10.60;;
38717;SDS011;24468;52.128;9.278;2023-11-21T00:29:19;16.10;;;9.88;;
38717;SDS011;24468;52.128;9.278;2023-11-21T00:31:45;13.32;;;8.88;;
38717;SDS011;24468;52.128;9.278;2023-11-21T00:34:13;24.95;;;9.70;;
38717;SDS011;24468;52.128;9.278;2023-11-21T00:36:39;13.48;;;8.48;;
38717;SDS011;24468;52.128;9.278;2023-11-21T00:39:05;13.98;;;8.98;;
38717;SDS011;24468;52.128;9.278;2023-11-21T00:41:31;18.95;;;9.02;;
38717;SDS011;24468;52.128;9.278;2023-11-21T00:43:57;13.45;;;8.43;;
38717;SDS011;24468;52.128;9.278;2023-11-21T00:46:24;11.13;;;8.10;;
38717;SDS011;24468;52.128;9.278;2023-11-21T00:48:51;11.43;;;8.43;;
38717;SDS011;24468;52.128;9.278;2023-11-21T00:51:19;14.27;;;8.25;;
38717;SDS011;24468;52.128;9.278;2023-11-21T00:53:45;14.07;;;9.55;;
38717;SDS011;24468;52.128;9.278;2023-11-21T00:56:11;14.43;;;9.38;;
38717;SDS011;24468;52.128;9.278;2023-11-21T00:58:37;15.18;;;9.02;;
38717;SDS011;24468;52.128;9.278;2023-11-21T01:01:02;14.43;;;9.00;;
38717;SDS011;24468;52.128;9.278;2023-11-21T01:03:28;15.48;;;9.15;;
38717;SDS011;24468;52.128;9.278;2023-11-21T01:05:54;15.52;;;10.02;;
38717;SDS011;24468;52.128;9.278;2023-11-21T01:08:19;20.55;;;11.15;;
38717;SDS011;24468;52.128;9.278;2023-11-21T01:10:45;16.80;;;10.20;;
38717;SDS011;24468;52.128;9.278;2023-11-21T01:13:10;13.35;;;10.60;;
38717;SDS011;24468;52.128;9.278;2023-11-21T01:15:36;17.92;;;11.68;;
38717;SDS011;24468;52.128;9.278;2023-11-21T01:18:01;14.98;;;10.88;;
38717;SDS011;24468;52.128;9.278;2023-11-21T01:20:28;13.80;;;10.55;;
38717;SDS011;24468;52.128;9.278;2023-11-21T01:22:54;19.55;;;11.57;;
38717;SDS011;24468;52.128;9.278;2023-11-21T01:25:20;17.50;;;10.95;;
38717;SDS011;24468;52.128;9.278;2023-11-21T01:27:46;14.13;;;11.10;;
38717;SDS011;24468;52.128;9.278;2023-11-21T01:30:12;18.83;;;9.80;;
38717;SDS011;24468;52.128;9.278;2023-11-21T01:32:38;16.85;;;11.18;;
38717;SDS011;24468;52.128;9.278;2023-11-21T01:35:04;16.13;;;12.00;;
38717;SDS011;24468;52.128;9.278;2023-11-21T01:37:31;15.20;;;10.65;;
38717;SDS011;24468;52.128;9.278;2023-11-21T01:39:58;17.05;;;11.38;;
38717;SDS011;24468;52.128;9.278;2023-11-21T01:42:26;15.05;;;11.10;;
38717;SDS011;24468;52.128;9.278;2023-11-21T01:44:52;15.15;;;11.45;;
38717;SDS011;24468;52.128;9.278;2023-11-21T01:47:19;17.25;;;12.35;;
38717;SDS011;24468;52.128;9.278;2023-11-21T01:49:46;19.27;;;10.98;;
38717;SDS011;24468;52.128;9.278;2023-11-21T01:52:13;16.15;;;10.88;;
38717;SDS011;24468;52.128;9.278;2023-11-21T01:54:39;16.30;;;9.70;;
38717;SDS011;24468;52.128;9.278;2023-11-21T01:57:07;15.60;;;10.35;;
38717;SDS011;24468;52.128;9.278;2023-11-21T01:59:39;13.90;;;10.52;;
38717;SDS011;24468;52.128;9.278;2023-11-21T02:02:07;15.93;;;11.85;;
38717;SDS011;24468;52.128;9.278;2023-11-21T02:04:34;13.68;;;9.93;;
38717;SDS011;24468;52.128;9.278;2023-11-21T02:07:04;17.60;;;10.13;;
38717;SDS011;24468;52.128;9.278;2023-11-21T02:09:33;17.58;;;11.18;;
38717;SDS011;24468;52.128;9.278;2023-11-21T02:11:59;18.02;;;10.77;;
38717;SDS011;24468;52.128;9.278;2023-11-21T02:14:25;17.95;;;11.32;;
38717;SDS011;24468;52.128;9.278;2023-11-21T02:16:52;13.70;;;9.90;;
38717;SDS011;24468;52.128;9.278;2023-11-21T02:19:20;15.88;;;10.52;;
38717;SDS011;24468;52.128;9.278;2023-11-21T02:21:54;11.02;;;9.55;;
38717;SDS011;24468;52.128;9.278;2023-11-21T02:24:31;14.05;;;9.55;;
38717;SDS011;24468;52.128;9.278;2023-11-21T02:26:57;16.58;;;9.63;;
38717;SDS011;24468;52.128;9.278;2023-11-21T02:29:23;16.17;;;10.32;;
38717;SDS011;24468;52.128;9.278;2023-11-21T02:31:53;18.45;;;9.80;;
38717;SDS011;24468;52.128;9.278;2023-11-21T02:34:20;19.45;;;9.95;;
38717;SDS011;24468;52.128;9.278;2023-11-21T02:36:47;18.30;;;10.02;;
38717;SDS011;24468;52.128;9.278;2023-11-21T02:39:16;17.17;;;10.13;;
38717;SDS011;24468;52.128;9.278;2023-11-21T02:41:42;16.17;;;10.45;;
38717;SDS011;24468;52.128;9.278;2023-11-21T02:44:09;13.70;;;9.85;;
38717;SDS011;24468;52.128;9.278;2023-11-21T02:46:35;11.63;;;9.38;;
38717;SDS011;24468;52.128;9.278;2023-11-21T02:49:02;14.57;;;9.85;;
38717;SDS011;24468;52.128;9.278;2023-11-21T02:51:29;20.15;;;10.38;;
38717;SDS011;24468;52.128;9.278;2023-11-21T02:53:55;13.82;;;10.10;;
38717;SDS011;24468;52.128;9.278;2023-11-21T02:56:25;11.85;;;8.18;;
38717;SDS011;24468;52.128;9.278;2023-11-21T02:58:51;18.92;;;8.95;;
38717;SDS011;24468;52.128;9.278;2023-11-21T03:01:17;12.95;;;8.23;;
38717;SDS011;24468;52.128;9.278;2023-11-21T03:03:43;15.88;;;9.57;;
38717;SDS011;24468;52.128;9.278;2023-11-21T03:06:08;15.43;;;9.38;;
38717;SDS011;24468;52.128;9.278;2023-11-21T03:08:34;14.50;;;8.65;;
38717;SDS011;24468;52.128;9.278;2023-11-21T03:11:00;16.35;;;9.93;;
38717;SDS011;24468;52.128;9.278;2023-11-21T03:13:28;14.90;;;10.48;;
38717;SDS011;24468;52.128;9.278;2023-11-21T03:15:53;28.63;;;12.23;;
38717;SDS011;24468;52.128;9.278;2023-11-21T03:18:19;15.15;;;11.27;;
38717;SDS011;24468;52.128;9.278;2023-11-21T03:20:47;13.40;;;8.07;;
38717;SDS011;24468;52.128;9.278;2023-11-21T03:23:12;11.95;;;8.38;;
38717;SDS011;24468;52.128;9.278;2023-11-21T03:25:38;17.00;;;10.23;;
38717;SDS011;24468;52.128;9.278;2023-11-21T03:28:04;15.73;;;10.52;;
38717;SDS011;24468;52.128;9.278;2023-11-21T03:30:30;17.55;;;10.40;;
38717;SDS011;24468;52.128;9.278;2023-11-21T03:32:55;17.45;;;11.48;;
38717;SDS011;24468;52.128;9.278;2023-11-21T03:35:21;14.90;;;10.85;;
38717;SDS011;24468;52.128;9.278;2023-11-21T03:37:47;19.85;;;11.90;;
38717;SDS011;24468;52.128;9.278;2023-11-21T03:40:12;16.52;;;11.85;;
38717;SDS011;24468;52.128;9.278;2023-11-21T03:42:38;14.93;;;10.88;;
38717;SDS011;24468;52.128;9.278;2023-11-21T03:45:05;19.75;;;12.65;;
38717;SDS011;24468;52.128;9.278;2023-11-21T03:47:31;21.08;;;11.82;;
38717;SDS011;24468;52.128;9.278;2023-11-21T03:49:57;20.27;;;13.35;;
38717;SDS011;24468;52.128;9.278;2023-11-21T03:52:23;17.15;;;12.23;;
38717;SDS011;24468;52.128;9.278;2023-11-21T03:54:49;23.60;;;13.10;;
38717;SDS011;24468;52.128;9.278;2023-11-21T03:57:15;21.35;;;13.95;;
38717;SDS011;24468;52.128;9.278;2023-11-21T03:59:41;20.77;;;12.07;;
38717;SDS011;24468;52.128;9.278;2023-11-21T04:02:07;22.30;;;13.05;;
38717;SDS011;24468;52.128;9.278;2023-11-21T04:04:34;18.85;;;12.15;;
38717;SDS011;24468;52.128;9.278;2023-11-21T04:07:00;16.60;;;12.25;;
38717;SDS011;24468;52.128;9.278;2023-11-21T04:09:25;20.10;;;11.88;;
38717;SDS011;24468;52.128;9.278;2023-11-21T04:11:51;23.73;;;12.63;;
38717;SDS011;24468;52.128;9.278;2023-11-21T04:14:17;18.98;;;12.13;;
38717;SDS011;24468;52.128;9.278;2023-11-21T04:16:44;21.60;;;13.48;;
38717;SDS011;24468;52.128;9.278;2023-11-21T04:19:10;20.83;;;12.38;;
38717;SDS011;24468;52.128;9.278;2023-11-21T04:21:36;15.50;;;12.10;;
38717;SDS011;24468;52.128;9.278;2023-11-21T04:24:03;17.55;;;11.93;;
38717;SDS011;24468;52.128;9.278;2023-11-21T04:26:29;18.13;;;12.23;;
38717;SDS011;24468;52.128;9.278;2023-11-21T04:28:54;21.08;;;13.50;;
38717;SDS011;24468;52.128;9.278;2023-11-21T04:31:20;24.60;;;13.27;;
38717;SDS011;24468;52.128;9.278;2023-11-21T04:33:46;26.38;;;14.65;;
38717;SDS011;24468;52.128;9.278;2023-11-21T04:36:11;21.08;;;13.25;;
38717;SDS011;24468;52.128;9.278;2023-11-21T04:38:37;16.45;;;13.15;;
38717;SDS011;24468;52.128;9.278;2023-11-21T04:41:02;25.23;;;14.70;;
38717;SDS011;24468;52.128;9.278;2023-11-21T04:43:28;26.25;;;13.98;;
38717;SDS011;24468;52.128;9.278;2023-11-21T04:45:54;19.73;;;13.90;;
38717;SDS011;24468;52.128;9.278;2023-11-21T04:48:20;19.00;;;12.68;;
38717;SDS011;24468;52.128;9.278;2023-11-21T04:50:45;24.35;;;13.32;;
38717;SDS011;24468;52.128;9.278;2023-11-21T04:53:11;22.05;;;12.93;;
38717;SDS011;24468;52.128;9.278;2023-11-21T04:55:39;17.38;;;12.30;;
38717;SDS011;24468;52.128;9.278;2023-11-21T04:58:05;23.92;;;14.82;;
38717;SDS011;24468;52.128;9.278;2023-11-21T05:00:31;22.38;;;13.93;;
38717;SDS011;24468;52.128;9.278;2023-11-21T05:02:57;22.77;;;15.25;;
38717;SDS011;24468;52.128;9.278;2023-11-21T05:05:22;25.17;;;17.95;;
38717;SDS011;24468;52.128;9.278;2023-11-21T05:07:49;23.95;;;15.60;;
38717;SDS011;24468;52.128;9.278;2023-11-21T05:10:14;22.20;;;15.60;;
38717;SDS011;24468;52.128;9.278;2023-11-21T05:12:40;27.52;;;15.63;;
38717;SDS011;24468;52.128;9.278;2023-11-21T05:15:07;23.63;;;15.40;;
38717;SDS011;24468;52.128;9.278;2023-11-21T05:17:36;23.23;;;14.65;;
38717;SDS011;24468;52.128;9.278;2023-11-21T05:20:04;27.80;;;15.48;;
38717;SDS011;24468;52.128;9.278;2023-11-21T05:22:33;26.67;;;15.75;;
38717;SDS011;24468;52.128;9.278;2023-11-21T05:24:59;26.15;;;15.68;;
38717;SDS011;24468;52.128;9.278;2023-11-21T05:27:25;23.13;;;16.05;;
38717;SDS011;24468;52.128;9.278;2023-11-21T05:29:51;23.23;;;14.63;;
38717;SDS011;24468;52.128;9.278;2023-11-21T05:32:16;22.00;;;14.05;;
38717;SDS011;24468;52.128;9.278;2023-11-21T05:34:42;22.50;;;14.68;;
38717;SDS011;24468;52.128;9.278;2023-11-21T05:37:08;19.83;;;14.05;;
38717;SDS011;24468;52.128;9.278;2023-11-21T05:39:33;21.15;;;14.52;;
38717;SDS011;24468;52.128;9.278;2023-11-21T05:42:00;19.80;;;13.82;;
38717;SDS011;24468;52.128;9.278;2023-11-21T05:44:26;20.98;;;12.77;;
38717;SDS011;24468;52.128;9.278;2023-11-21T05:46:52;18.17;;;12.93;;
38717;SDS011;24468;52.128;9.278;2023-11-21T05:49:18;18.13;;;12.68;;
38717;SDS011;24468;52.128;9.278;2023-11-21T05:51:46;19.55;;;12.73;;
38717;SDS011;24468;52.128;9.278;2023-11-21T05:54:12;18.83;;;12.77;;
38717;SDS011;24468;52.128;9.278;2023-11-21T05:56:38;25.45;;;13.70;;
38717;SDS011;24468;52.128;9.278;2023-11-21T05:59:03;22.13;;;13.75;;
38717;SDS011;24468;52.128;9.278;2023-11-21T06:01:29;20.45;;;13.70;;
38717;SDS011;24468;52.128;9.278;2023-11-21T06:03:54;17.75;;;12.55;;
38717;SDS011;24468;52.128;9.278;2023-11-21T06:06:20;23.92;;;13.52;;
38717;SDS011;24468;52.128;9.278;2023-11-21T06:08:48;18.25;;;13.52;;
38717;SDS011;24468;52.128;9.278;2023-11-21T06:11:14;18.35;;;13.70;;
38717;SDS011;24468;52.128;9.278;2023-11-21T06:13:41;18.42;;;12.82;;
38717;SDS011;24468;52.128;9.278;2023-11-21T06:16:07;18.10;;;12.38;;
38717;SDS011;24468;52.128;9.278;2023-11-21T06:18:32;21.60;;;14.38;;
38717;SDS011;24468;52.128;9.278;2023-11-21T06:20:58;23.95;;;14.80;;
38717;SDS011;24468;52.128;9.278;2023-11-21T06:23:25;23.20;;;15.98;;
38717;SDS011;24468;52.128;9.278;2023-11-21T06:25:51;22.25;;;14.50;;
38717;SDS011;24468;52.128;9.278;2023-11-21T06:28:17;27.10;;;17.05;;
38717;SDS011;24468;52.128;9.278;2023-11-21T06:30:43;23.73;;;16.05;;
38717;SDS011;24468;52.128;9.278;2023-11-21T06:33:10;25.83;;;16.30;;
38717;SDS011;24468;52.128;9.278;2023-11-21T06:35:36;22.95;;;15.45;;
38717;SDS011;24468;52.128;9.278;2023-11-21T06:38:01;28.08;;;16.20;;
38717;SDS011;24468;52.128;9.278;2023-11-21T06:40:27;25.42;;;15.98;;
38717;SDS011;24468;52.128;9.278;2023-11-21T06:42:53;23.85;;;14.30;;
38717;SDS011;24468;52.128;9.278;2023-11-21T06:45:19;21.40;;;14.20;;
38717;SDS011;24468;52.128;9.278;2023-11-21T06:47:45;24.38;;;15.05;;
38717;SDS011;24468;52.128;9.278;2023-11-21T06:50:10;24.13;;;15.45;;
38717;SDS011;24468;52.128;9.278;2023-11-21T06:52:36;20.58;;;13.40;;
38717;SDS011;24468;52.128;9.278;2023-11-21T06:55:02;23.50;;;14.32;;
38717;SDS011;24468;52.128;9.278;2023-11-21T06:57:28;23.58;;;14.70;;
38717;SDS011;24468;52.128;9.278;2023-11-21T06:59:53;22.88;;;13.57;;
38717;SDS011;24468;52.128;9.278;2023-11-21T07:02:19;21.80;;;14.38;;
38717;SDS011;24468;52.128;9.278;2023-11-21T07:04:45;21.65;;;14.00;;
38717;SDS011;24468;52.128;9.278;2023-11-21T07:07:11;24.92;;;15.85;;
38717;SDS011;24468;52.128;9.278;2023-11-21T07:09:37;28.02;;;14.73;;
38717;SDS011;24468;52.128;9.278;2023-11-21T07:12:03;26.17;;;16.33;;
38717;SDS011;24468;52.128;9.278;2023-11-21T07:14:32;23.27;;;14.73;;
38717;SDS011;24468;52.128;9.278;2023-11-21T07:16:59;27.77;;;18.27;;
38717;SDS011;24468;52.128;9.278;2023-11-21T07:19:24;28.90;;;17.33;;
38717;SDS011;24468;52.128;9.278;2023-11-21T07:21:50;27.58;;;20.02;;
38717;SDS011;24468;52.128;9.278;2023-11-21T07:24:16;32.72;;;23.55;;
38717;SDS011;24468;52.128;9.278;2023-11-21T07:26:42;29.25;;;22.13;;
38717;SDS011;24468;52.128;9.278;2023-11-21T07:29:08;28.65;;;21.85;;
38717;SDS011;24468;52.128;9.278;2023-11-21T07:31:33;25.05;;;17.58;;
38717;SDS011;24468;52.128;9.278;2023-11-21T07:33:59;26.08;;;16.95;;
38717;SDS011;24468;52.128;9.278;2023-11-21T07:36:25;27.20;;;16.98;;
38717;SDS011;24468;52.128;9.278;2023-11-21T07:38:52;26.63;;;16.88;;
38717;SDS011;24468;52.128;9.278;2023-11-21T07:41:18;24.10;;;16.23;;
38717;SDS011;24468;52.128;9.278;2023-11-21T07:43:44;24.20;;;15.70;;
38717;SDS011;24468;52.128;9.278;2023-11-21T07:46:10;26.98;;;15.63;;
38717;SDS011;24468;52.128;9.278;2023-11-21T07:48:37;23.95;;;14.85;;
38717;SDS011;24468;52.128;9.278;2023-11-21T07:51:04;23.58;;;14.93;;
38717;SDS011;24468;52.128;9.278;2023-11-21T07:53:31;23.80;;;15.25;;
38717;SDS011;24468;52.128;9.278;2023-11-21T07:55:58;21.83;;;13.38;;
38717;SDS011;24468;52.128;9.278;2023-11-21T07:58:27;25.75;;;13.77;;
38717;SDS011;24468;52.128;9.278;2023-11-21T08:00:53;18.70;;;12.80;;
38717;SDS011;24468;52.128;9.278;2023-11-21T08:03:19;21.52;;;13.40;;
38717;SDS011;24468;52.128;9.278;2023-11-21T08:05:44;19.83;;;12.68;;
38717;SDS011;24468;52.128;9.278;2023-11-21T08:08:10;19.35;;;12.75;;
38717;SDS011;24468;52.128;9.278;2023-11-21T08:10:36;18.67;;;12.85;;
38717;SDS011;24468;52.128;9.278;2023-11-21T08:13:02;18.83;;;12.85;;
38717;SDS011;24468;52.128;9.278;2023-11-21T08:15:28;18.13;;;12.73;;
38717;SDS011;24468;52.128;9.278;2023-11-21T08:17:54;16.92;;;12.02;;
38717;SDS011;24468;52.128;9.278;2023-11-21T08:20:20;17.70;;;11.95;;
38717;SDS011;24468;52.128;9.278;2023-11-21T08:22:47;13.73;;;9.68;;
38717;SDS011;24468;52.128;9.278;2023-11-21T08:25:13;15.35;;;11.13;;
38717;SDS011;24468;52.128;9.278;2023-11-21T08:27:39;17.70;;;10.45;;
38717;SDS011;24468;52.128;9.278;2023-11-21T08:30:05;10.73;;;8.38;;
38717;SDS011;24468;52.128;9.278;2023-11-21T08:32:32;11.82;;;7.07;;
38717;SDS011;24468;52.128;9.278;2023-11-21T08:34:58;10.30;;;6.85;;
38717;SDS011;24468;52.128;9.278;2023-11-21T08:37:24;10.38;;;6.93;;
38717;SDS011;24468;52.128;9.278;2023-11-21T08:39:52;7.38;;;5.53;;
38717;SDS011;24468;52.128;9.278;2023-11-21T08:42:18;7.20;;;5.20;;
38717;SDS011;24468;52.128;9.278;2023-11-21T08:44:44;8.00;;;6.15;;
38717;SDS011;24468;52.128;9.278;2023-11-21T08:47:10;7.90;;;4.90;;
38717;SDS011;24468;52.128;9.278;2023-11-21T08:49:36;8.90;;;5.50;;
38717;SDS011;24468;52.128;9.278;2023-11-21T08:52:03;9.18;;;5.50;;
38717;SDS011;24468;52.128;9.278;2023-11-21T08:54:30;7.93;;;5.43;;
38717;SDS011;24468;52.128;9.278;2023-11-21T08:56:56;7.18;;;5.20;;
38717;SDS011;24468;52.128;9.278;2023-11-21T08:59:23;5.35;;;4.10;;
38717;SDS011;24468;52.128;9.278;2023-11-21T09:01:49;4.90;;;3.58;;
38717;SDS011;24468;52.128;9.278;2023-11-21T09:04:15;4.65;;;3.22;;
38717;SDS011;24468;52.128;9.278;2023-11-21T09:06:41;3.33;;;2.85;;
38717;SDS011;24468;52.128;9.278;2023-11-21T09:09:07;3.47;;;2.72;;
38717;SDS011;24468;52.128;9.278;2023-11-21T09:11:35;6.38;;;2.67;;
38717;SDS011;24468;52.128;9.278;2023-11-21T09:14:02;4.55;;;3.33;;
38717;SDS011;24468;52.128;9.278;2023-11-21T09:16:31;5.05;;;2.95;;
38717;SDS011;24468;52.128;9.278;2023-11-21T09:18:56;3.63;;;3.08;;
38717;SDS011;24468;52.128;9.278;2023-11-21T09:21:22;3.97;;;2.47;;
38717;SDS011;24468;52.128;9.278;2023-11-21T09:23:48;1.52;;;1.30;;
38717;SDS011;24468;52.128;9.278;2023-11-21T09:26:14;0.93;;;0.82;;
38717;SDS011;24468;52.128;9.278;2023-11-21T09:28:41;0.85;;;0.40;;
38717;SDS011;24468;52.128;9.278;2023-11-21T09:31:11;0.88;;;0.70;;
38717;SDS011;24468;52.128;9.278;2023-11-21T09:33:37;2.10;;;0.57;;
38717;SDS011;24468;52.128;9.278;2023-11-21T09:36:03;1.05;;;0.40;;
38717;SDS011;24468;52.128;9.278;2023-11-21T09:38:30;1.92;;;1.13;;
38717;SDS011;24468;52.128;9.278;2023-11-21T09:40:56;0.57;;;0.45;;
38717;SDS011;24468;52.128;9.278;2023-11-21T09:43:23;1.30;;;0.60;;
38717;SDS011;24468;52.128;9.278;2023-11-21T09:45:54;1.63;;;0.65;;
38717;SDS011;24468;52.128;9.278;2023-11-21T09:48:25;1.48;;;0.75;;
38717;SDS011;24468;52.128;9.278;2023-11-21T09:50:51;0.60;;;0.45;;
38717;SDS011;24468;52.128;9.278;2023-11-21T09:53:22;0.50;;;0.47;;
38717;SDS011;24468;52.128;9.278;2023-11-21T09:55:50;0.70;;;0.50;;
38717;SDS011;24468;52.128;9.278;2023-11-21T09:58:17;2.13;;;0.63;;
38717;SDS011;24468;52.128;9.278;2023-11-21T10:00:45;0.75;;;0.50;;
38717;SDS011;24468;52.128;9.278;2023-11-21T10:03:14;1.30;;;1.20;;
38717;SDS011;24468;52.128;9.278;2023-11-21T10:05:42;1.40;;;1.30;;
38717;SDS011;24468;52.128;9.278;2023-11-21T10:08:09;1.00;;;0.73;;
38717;SDS011;24468;52.128;9.278;2023-11-21T10:10:36;0.80;;;0.80;;
38717;SDS011;24468;52.128;9.278;2023-11-21T10:13:04;0.82;;;0.68;;
38717;SDS011;24468;52.128;9.278;2023-11-21T10:15:33;0.77;;;0.70;;
38717;SDS011;24468;52.128;9.278;2023-11-21T10:18:00;1.20;;;0.90;;
38717;SDS011;24468;52.128;9.278;2023-11-21T10:20:31;0.65;;;0.65;;
38717;SDS011;24468;52.128;9.278;2023-11-21T10:23:02;0.98;;;0.98;;
38717;SDS011;24468;52.128;9.278;2023-11-21T10:25:29;0.90;;;0.77;;
38717;SDS011;24468;52.128;9.278;2023-11-21T10:27:58;1.10;;;1.00;;
38717;SDS011;24468;52.128;9.278;2023-11-21T10:30:33;2.55;;;1.50;;
38717;SDS011;24468;52.128;9.278;2023-11-21T10:33:06;2.15;;;1.60;;
38717;SDS011;24468;52.128;9.278;2023-11-21T10:35:46;1.27;;;1.08;;
38717;SDS011;24468;52.128;9.278;2023-11-21T10:38:18;1.05;;;0.95;;
38717;SDS011;24468;52.128;9.278;2023-11-21T10:40:47;1.92;;;1.48;;
38717;SDS011;24468;52.128;9.278;2023-11-21T10:43:14;2.13;;;1.50;;
38717;SDS011;24468;52.128;9.278;2023-11-21T10:45:40;2.70;;;2.00;;
38717;SDS011;24468;52.128;9.278;2023-11-21T10:48:07;2.60;;;2.22;;
38717;SDS011;24468;52.128;9.278;2023-11-21T10:50:36;3.90;;;2.60;;
38717;SDS011;24468;52.128;9.278;2023-11-21T10:53:02;6.40;;;3.85;;
38717;SDS011;24468;52.128;9.278;2023-11-21T10:55:29;5.15;;;3.38;;
38717;SDS011;24468;52.128;9.278;2023-11-21T10:57:58;5.25;;;3.85;;
38717;SDS011;24468;52.128;9.278;2023-11-21T11:00:26;6.35;;;4.28;;
38717;SDS011;24468;52.128;9.278;2023-11-21T11:02:54;6.45;;;4.35;;
38717;SDS011;24468;52.128;9.278;2023-11-21T11:05:21;6.35;;;4.70;;
38717;SDS011;24468;52.128;9.278;2023-11-21T11:07:50;6.45;;;4.40;;
38717;SDS011;24468;52.128;9.278;2023-11-21T11:10:25;6.30;;;4.68;;
38717;SDS011;24468;52.128;9.278;2023-11-21T11:12:53;5.47;;;4.10;;
38717;SDS011;24468;52.128;9.278;2023-11-21T11:15:20;6.32;;;4.22;;
38717;SDS011;24468;52.128;9.278;2023-11-21T11:17:46;6.50;;;4.18;;
38717;SDS011;24468;52.128;9.278;2023-11-21T11:20:13;5.85;;;4.30;;
38717;SDS011;24468;52.128;9.278;2023-11-21T11:22:57;5.65;;;4.55;;
38717;SDS011;24468;52.128;9.278;2023-11-21T11:25:46;5.85;;;3.90;;
38717;SDS011;24468;52.128;9.278;2023-11-21T11:28:51;4.75;;;4.13;;
38717;SDS011;24468;52.128;9.278;2023-11-21T11:32:14;6.03;;;4.13;;
38717;SDS011;24468;52.128;9.278;2023-11-21T11:37:59;5.82;;;4.68;;
38717;SDS011;24468;52.128;9.278;2023-11-21T11:40:40;5.10;;;4.38;;
38717;SDS011;24468;52.128;9.278;2023-11-21T11:43:10;7.35;;;3.88;;
38717;SDS011;24468;52.128;9.278;2023-11-21T11:45:36;5.35;;;4.10;;
38717;SDS011;24468;52.128;9.278;2023-11-21T11:48:06;4.18;;;3.55;;
38717;SDS011;24468;52.128;9.278;2023-11-21T11:50:35;6.50;;;5.00;;
38717;SDS011;24468;52.128;9.278;2023-11-21T11:53:14;5.15;;;4.00;;
38717;SDS011;24468;52.128;9.278;2023-11-21T11:55:40;4.03;;;3.55;;
38717;SDS011;24468;52.128;9.278;2023-11-21T11:58:06;4.65;;;4.15;;
38717;SDS011;24468;52.128;9.278;2023-11-21T12:00:33;5.90;;;3.60;;
38717;SDS011;24468;52.128;9.278;2023-11-21T12:05:32;3.63;;;2.97;;
38717;SDS011;24468;52.128;9.278;2023-11-21T12:08:02;6.00;;;3.88;;
38717;SDS011;24468;52.128;9.278;2023-11-21T12:10:33;4.43;;;3.60;;
38717;SDS011;24468;52.128;9.278;2023-11-21T12:13:02;6.80;;;3.80;;
38717;SDS011;24468;52.128;9.278;2023-11-21T12:15:37;8.00;;;3.80;;
38717;SDS011;24468;52.128;9.278;2023-11-21T12:18:03;5.18;;;3.72;;
38717;SDS011;24468;52.128;9.278;2023-11-21T12:20:30;5.53;;;3.75;;
38717;SDS011;24468;52.128;9.278;2023-11-21T12:22:57;4.85;;;3.92;;
38717;SDS011;24468;52.128;9.278;2023-11-21T12:25:25;4.28;;;3.58;;
38717;SDS011;24468;52.128;9.278;2023-11-21T12:27:59;4.55;;;3.55;;
38717;SDS011;24468;52.128;9.278;2023-11-21T12:30:26;4.68;;;3.83;;
38717;SDS011;24468;52.128;9.278;2023-11-21T12:32:56;4.15;;;3.70;;
38717;SDS011;24468;52.128;9.278;2023-11-21T12:35:24;4.97;;;3.90;;
38717;SDS011;24468;52.128;9.278;2023-11-21T12:37:55;4.70;;;3.55;;
38717;SDS011;24468;52.128;9.278;2023-11-21T12:40:22;5.65;;;3.60;;
38717;SDS011;24468;52.128;9.278;2023-11-21T12:42:48;4.65;;;4.13;;
38717;SDS011;24468;52.128;9.278;2023-11-21T12:45:19;5.55;;;3.50;;
38717;SDS011;24468;52.128;9.278;2023-11-21T12:47:51;4.03;;;3.17;;
38717;SDS011;24468;52.128;9.278;2023-11-21T12:50:21;4.80;;;3.25;;
38717;SDS011;24468;52.128;9.278;2023-11-21T12:52:53;3.53;;;2.65;;
38717;SDS011;24468;52.128;9.278;2023-11-21T12:55:23;3.63;;;3.10;;
38717;SDS011;24468;52.128;9.278;2023-11-21T12:57:52;4.95;;;3.25;;
38717;SDS011;24468;52.128;9.278;2023-11-21T13:00:19;3.25;;;2.88;;
38717;SDS011;24468;52.128;9.278;2023-11-21T13:02:57;2.80;;;2.47;;
38717;SDS011;24468;52.128;9.278;2023-11-21T13:05:45;3.08;;;2.72;;
38717;SDS011;24468;52.128;9.278;2023-11-21T13:08:11;4.20;;;3.80;;
38717;SDS011;24468;52.128;9.278;2023-11-21T13:10:39;7.20;;;3.42;;
38717;SDS011;24468;52.128;9.278;2023-11-21T13:13:09;11.80;;;9.18;;
38717;SDS011;24468;52.128;9.278;2023-11-21T13:15:46;5.05;;;3.67;;
38717;SDS011;24468;52.128;9.278;2023-11-21T13:18:14;6.13;;;4.20;;
38717;SDS011;24468;52.128;9.278;2023-11-21T13:20:40;4.78;;;3.20;;
38717;SDS011;24468;52.128;9.278;2023-11-21T13:23:08;14.45;;;10.65;;
38717;SDS011;24468;52.128;9.278;2023-11-21T13:25:39;6.73;;;6.03;;
38717;SDS011;24468;52.128;9.278;2023-11-21T13:28:07;5.43;;;4.03;;
38717;SDS011;24468;52.128;9.278;2023-11-21T13:30:34;6.40;;;5.80;;
38717;SDS011;24468;52.128;9.278;2023-11-21T13:33:04;5.53;;;4.82;;
38717;SDS011;24468;52.128;9.278;2023-11-21T13:35:32;6.28;;;4.95;;
38717;SDS011;24468;52.128;9.278;2023-11-21T13:38:06;4.95;;;4.45;;
38717;SDS011;24468;52.128;9.278;2023-11-21T13:40:35;5.97;;;4.65;;
38717;SDS011;24468;52.128;9.278;2023-11-21T13:43:09;6.75;;;4.43;;
38717;SDS011;24468;52.128;9.278;2023-11-21T13:45:36;7.20;;;5.80;;
38717;SDS011;24468;52.128;9.278;2023-11-21T13:48:04;9.43;;;5.40;;
38717;SDS011;24468;52.128;9.278;2023-11-21T13:50:33;6.28;;;4.78;;
38717;SDS011;24468;52.128;9.278;2023-11-21T13:53:02;9.10;;;7.32;;
38717;SDS011;24468;52.128;9.278;2023-11-21T13:55:43;7.22;;;5.00;;
38717;SDS011;24468;52.128;9.278;2023-11-21T13:58:10;7.28;;;5.57;;
38717;SDS011;24468;52.128;9.278;2023-11-21T14:00:42;6.40;;;5.32;;
38717;SDS011;24468;52.128;9.278;2023-11-21T14:03:14;6.43;;;5.20;;
38717;SDS011;24468;52.128;9.278;2023-11-21T14:05:46;6.22;;;4.93;;
38717;SDS011;24468;52.128;9.278;2023-11-21T14:08:18;7.65;;;4.85;;
38717;SDS011;24468;52.128;9.278;2023-11-21T14:10:46;6.80;;;5.78;;
38717;SDS011;24468;52.128;9.278;2023-11-21T14:13:20;10.70;;;6.63;;
38717;SDS011;24468;52.128;9.278;2023-11-21T14:15:48;9.93;;;7.10;;
38717;SDS011;24468;52.128;9.278;2023-11-21T14:18:19;9.20;;;6.83;;
38717;SDS011;24468;52.128;9.278;2023-11-21T14:20:52;6.20;;;4.90;;
38717;SDS011;24468;52.128;9.278;2023-11-21T14:23:18;5.88;;;3.95;;
38717;SDS011;24468;52.128;9.278;2023-11-21T14:25:43;7.07;;;4.30;;
38717;SDS011;24468;52.128;9.278;2023-11-21T14:28:09;4.13;;;3.55;;
38717;SDS011;24468;52.128;9.278;2023-11-21T14:30:36;7.03;;;5.78;;
38717;SDS011;24468;52.128;9.278;2023-11-21T14:33:06;5.95;;;3.28;;
38717;SDS011;24468;52.128;9.278;2023-11-21T14:35:33;7.30;;;3.70;;
38717;SDS011;24468;52.128;9.278;2023-11-21T14:37:59;5.75;;;4.40;;
38717;SDS011;24468;52.128;9.278;2023-11-21T14:40:25;6.35;;;5.15;;